Bloomington, IN (47401)

11:23 AM EDT on August 24, 2016 (GMT -0400)
Casa Wooton | | Change Station

Elev 804 ft 39.11 °N, 86.50 °W | Updated 2 minutes ago

Clear
Clear
84.9 °F
Feels Like 93 °F
N
3.7
Wind Variable Wind from SSE

Today
High -- | Low -- °F
--% Chance of Precip.
Yesterday
High -- | Low -- °F
Precip. -- in
Pressure 30.11 in
Visibility 10.0 miles
Clouds Clear
Heat Index 93 °F
Dew Point 75 °F
Humidity 72%
Rainfall 0.00 in
Snow Depth Not available.
7:07 AM 8:27 PM
Waning Gibbous, 56% visible
METAR KBMG 241453Z 21007KT 10SM CLR 27/22 A3013 RMK AO2 SLP196 T02670222 58005
Pressure 30.11 in
Visibility 10.0 miles
Clouds Clear
Heat Index 93 °F
Dew Point 75 °F
Humidity 72%
Rainfall 0.00 in
Snow Depth Not available.
7:07 AM 8:27 PM
Waning Gibbous, 56% visible
METAR KBMG 241453Z 21007KT 10SM CLR 27/22 A3013 RMK AO2 SLP196 T02670222 58005

10-Day Weather Forecast

Almanac

Astronomy

Aug. 24, 2016 Rise Set
Actual Time
Civil Twilight
Nautical Twilight
Astronomical Twilight
Moon
Length of Visible Light
Length of Day
Tomorrow will be .
, % of the Moon is Illuminated

Today's Extremes

State Highs State Lows

Community

WunderPhotos

Upload Photos

1,934,615 photos uploaded!

WunderBlog® & News

Nearby

Air Quality

  Air Quality AQ Index Pollutant
Not available.

Snow Depth

Station Depth Elevation

Earthquake Activity

City Distance Mag. Time & Date
Minimum magnitude displayed is 2.5.

Coastal Water Temperatures

Place Temperature

Stations

Nearby Weather Stations

Station Location Temp. Windchill Dew Point Humidity Wind Precip. Elev Updated Type
                   

Watches & Warnings

There are currently no watches in effect.